This is the latest recevied weather packets stored in our database for station/object IZ7EXI-13. If no packets are shown the sender has not sent any weather packets the latest 10 day(s).
| Time | Temp. | Humidity | Pressure | Rain* | Wind** | Luminosity | Snow |
|---|---|---|---|---|---|---|---|
| 1777313177 | 21.67° C | 45% | 1018.6 hPa | - | - | - | - |
| 1777312277 | 22.78° C | 37% | 1018.5 hPa | - | - | - | - |
| 1777311377 | 23.33° C | 36% | 1018.5 hPa | - | - | - | - |
| 1777310477 | 26.67° C | 31% | 1018.4 hPa | - | - | - | - |
| 1777309577 | 27.78° C | 29% | 1018.3 hPa | - | - | - | - |
| 1777308676 | 27.78° C | 29% | 1018.1 hPa | - | - | - | - |
| 1777307776 | 27.22° C | 30% | 1018.1 hPa | - | - | - | - |
| 1777306876 | 28.33° C | 31% | 1018.2 hPa | - | - | - | - |
| 1777305975 | 28.89° C | 30% | 1018.4 hPa | - | - | - | - |
| 1777305075 | 27.78° C | 31% | 1018.5 hPa | - | - | - | - |
| 1777304175 | 28.33° C | 29% | 1018.5 hPa | - | - | - | - |
| 1777303275 | 28.33° C | 29% | 1018.6 hPa | - | - | - | - |
| 1777302406 | 27.22° C | 31% | 1018.7 hPa | - | - | - | - |
| 1777302375 | 27.22° C | 31% | 1018.7 hPa | - | - | - | - |
| 1777301474 | 25.56° C | 34% | 1018.9 hPa | - | - | - | - |
| 1777300598 | 26.11° C | 30% | 1018.9 hPa | - | - | - | - |
| 1777300574 | 26.11° C | 30% | 1018.9 hPa | - | - | - | - |
| 1777299674 | 27.22° C | 28% | 1018.9 hPa | - | - | - | - |
| 1777298774 | 26.11° C | 31% | 1019 hPa | - | - | - | - |
| 1777297900 | 25.56° C | 33% | 1019.1 hPa | - | - | - | - |
| 1777297873 | 25.56° C | 33% | 1019.1 hPa | - | - | - | - |
| 1777296973 | 25.56° C | 35% | 1019.3 hPa | - | - | - | - |
| 1777296096 | 25° C | 38% | 1019.5 hPa | - | - | - | - |
| 1777296073 | 25° C | 38% | 1019.5 hPa | - | - | - | - |
| 1777295222 | 24.44° C | 40% | 1019.6 hPa | - | - | - | - |
* Rain since midnight (hover to see other rain measurements)
** Current wind speed in m/s (hover to see current wind gust speed)